Malaysia Virtual Airlines Airport Information Service

Katunayake

ICAO: VCBI Country: Sri Lanka
Latitude: 7.18076 Longitude: 79.8841
Latest Arrival : MH179 (WMKK-VCBI) Latest Departure : MH178 (VCBI-WMKK)


WX CaptureLIVE
Data provided by noaa.gov | Fetched at 07:27:01

METAR : VCBI 160610Z 25008KT 210V290 9999 SCT017 SCT019CB 31/25 Q1011 NOSIG RMK N/NE/S/SW/NW

TAF : VCBI 160500Z 1606/1712 VRB05KT 9999 SCT017 TX32/1608Z TN23/1700Z PROB30 TEMPO 1609/1615 7000 -TSRA/SHRA SCT017 FEW020CB


Runway Data for VCBI
Data provided by openaviationdata.com

Runway ID Mag Var Hdg Length Elevation Surface ILS Freq ILS Id ILS Slope
4 -4 41° 11024 ft 29 ft Asphalt 109.9 IKW 3
22 -4 221° 11024 ft 29 ft Asphalt 110.3 IKA 3

Katunayake, Sri Lanka
Use only for reference purposes



Not for navigational purposes.